Latest Weather Observations for Portland Harbour

IDV60801

Issued at 5:02 pm EST Sunday 18 August 2019 (issued every 10 minutes, with the page automatically refreshed every 10 minutes)

About weather observations | Map of weather stations | Latest weather observations for VIC | Other Formats
Station Details ID: 090192 Name: PORTLAND NTC AWS Lat: -38.34 Lon: 141.61 Height: 0.0 m
Data from the previous 72 hours. | See also: Recent months for locations in Victoria
Date/Time
EST
Temp
°C
App
Temp
°C
Dew
Point
°C
Rel
Hum
%
Delta-T
°C
Wind Press
QNH
hPa
Press
MSL
hPa
Rain since
9am
mm
Dir  Spd
km/h
Gust
km/h
Spd
kts
Gust
kts
18/05:00pm 8.6 - - - - SW 32 - 17 - - 1005.6 -
18/04:30pm 7.1 - - - - SW 52 82 28 44 1004.6 1004.6 -
18/04:21pm 7.8 - - - - SW 39 72 21 39 1004.1 1004.1 -
18/04:20pm 8.1 - - - - SW 37 72 20 39 1003.9 1003.9 -
18/04:17pm 8.9 - - - - SW 32 65 17 35 1003.6 1003.6 -
18/04:00pm 9.5 - - - - SW 26 37 14 20 1002.4 1002.4 -
18/03:30pm 9.2 - - - - SW 39 54 21 29 1001.3 1001.3 -
18/03:23pm 9.6 - - - - WSW 30 52 16 28 1000.9 1000.9 -
18/03:01pm 10.6 - - - - W 32 50 17 27 1000.3 1000.3 -
18/03:00pm 11.0 - - - - W 32 44 17 24 1000.2 1000.2 -
18/02:30pm 12.1 - - - - NW 35 56 19 30 1000.1 1000.1 -
18/02:06pm 13.2 - - - - NW 30 50 16 27 1000.0 1000.0 -
18/02:00pm 13.0 - - - - NW 28 44 15 24 1000.0 1000.0 -
18/01:30pm 12.8 - - - - NW 24 39 13 21 1000.3 1000.3 -
18/01:00pm 13.2 - - - - NW 26 39 14 21 1000.6 1000.6 -
18/12:43pm 14.1 - - - - NW 30 48 16 26 1000.7 1000.7 -
18/12:30pm 13.7 - - - - WNW 24 35 13 19 1001.0 1001.0 -
18/12:00pm 13.8 - - - - NW 33 52 18 28 1001.5 1001.5 -
18/11:41am 13.7 - - - - NNW 32 52 17 28 1002.0 1002.0 -
18/11:30am 13.4 - - - - NNW 33 50 18 27 1001.9 1001.9 -
18/11:18am 13.3 - - - - NW 28 54 15 29 1002.3 1002.3 -
18/11:00am 12.8 - - - - NNW 30 44 16 24 1002.5 1002.5 -
18/10:30am 11.8 - - - - NNW 26 33 14 18 1002.9 1002.9 -
18/10:00am 11.1 - - - - N 26 32 14 17 1003.1 1003.1 -
18/09:30am 11.0 - - - - N 24 32 13 17 1003.5 1003.5 -
18/09:00am 10.9 - - - - N 28 33 15 18 1003.8 1003.8 -
18/08:30am 11.0 - - - - N 30 37 16 20 1004.1 1004.1 -
18/08:00am 11.3 - - - - NNW 20 33 11 18 1004.7 1004.7 -
18/07:30am 11.6 - - - - NNW 24 35 13 19 1004.8 1004.8 -
18/07:00am 11.5 - - - - NNW 26 35 14 19 1004.8 1004.8 -
18/06:30am 11.9 - - - - NNW 28 39 15 21 1004.8 1004.8 -
18/06:00am 11.7 - - - - NNW 28 35 15 19 1004.4 1004.4 -
18/05:30am 11.9 - - - - N 28 33 15 18 1004.3 1004.3 -
18/05:00am 11.4 - - - - NW 19 26 10 14 1005.1 1005.1 -
18/04:30am 11.9 - - - - NNW 22 32 12 17 1005.1 1005.1 -
18/04:00am 11.1 - - - - NW 9 17 5 9 1005.7 1005.7 -
18/03:30am 11.5 - - - - NNW 24 32 13 17 1006.2 1006.2 -
18/03:00am 12.6 - - - - N 35 43 19 23 1006.1 1006.1 -
18/02:30am 13.1 - - - - N 32 41 17 22 1006.6 1006.6 -
18/02:00am 12.9 - - - - N 35 43 19 23 1006.7 1006.7 -
18/01:30am 12.9 - - - - N 39 48 21 26 1007.0 1007.0 -
18/01:00am 12.7 - - - - N 35 44 19 24 1007.7 1007.7 -
18/12:30am 12.4 - - - - N 30 39 16 21 1008.7 1008.7 -
18/12:00am 12.4 - - - - N 33 43 18 23 1009.1 1009.1 -
 
Date/Time
EST
Temp
°C
App
Temp
°C
Dew
Point
°C
Rel
Hum
%
Delta-T
°C
Wind Press
QNH
hPa
Press
MSL
hPa
Rain since
9am
mm
Dir  Spd
km/h
Gust
km/h
Spd
kts
Gust
kts
17/11:30pm 12.0 - - - - NNW 26 32 14 17 1009.5 1009.5 -
17/11:00pm 11.9 - - - - N 28 37 15 20 1009.3 1009.3 -
17/10:30pm 11.9 - - - - N 32 39 17 21 1009.9 1009.9 -
17/10:00pm 11.6 - - - - N 28 39 15 21 1010.6 1010.6 -
17/09:30pm 11.6 - - - - N 32 39 17 21 1011.2 1011.2 -
17/09:00pm 11.8 - - - - N 30 37 16 20 1011.7 1011.7 -
17/08:30pm 11.9 - - - - N 22 32 12 17 1012.2 1012.2 -
17/08:00pm 11.9 - - - - NNE 20 30 11 16 1012.5 1012.5 -
17/07:30pm 11.9 - - - - NNE 22 30 12 16 1012.8 1012.8 -
17/07:00pm 12.2 - - - - NNE 22 28 12 15 1012.7 1012.7 -
17/06:30pm 12.6 - - - - NNE 17 20 9 11 1013.1 1013.1 -
17/06:00pm 12.9 - - - - NNE 19 24 10 13 1013.1 1013.1 -
17/05:30pm 13.3 - - - - N 24 28 13 15 1013.4 1013.4 -
17/05:00pm 13.5 - - - - NNE 30 37 16 20 1013.2 1013.2 -
17/04:30pm 13.5 - - - - NNE 30 35 16 19 1013.1 1013.1 -
17/04:00pm 13.6 - - - - NNE 30 37 16 20 1013.6 1013.6 -
17/03:30pm 13.4 - - - - N 26 33 14 18 1014.2 1014.2 -
17/03:00pm 13.4 - - - - N 28 33 15 18 1014.7 1014.7 -
17/02:30pm 13.1 - - - - NNE 20 26 11 14 1015.1 1015.1 -
17/02:00pm 12.8 - - - - N 22 26 12 14 1015.6 1015.6 -
17/01:30pm 12.5 - - - - N 20 24 11 13 1016.3 1016.3 -
17/01:00pm 12.1 - - - - N 22 32 12 17 1017.1 1017.1 -
17/12:30pm 11.8 - - - - NNE 19 22 10 12 1017.5 1017.5 -
17/12:00pm 11.2 - - - - NNE 22 26 12 14 1018.4 1018.4 -
17/11:30am 10.7 - - - - NNE 30 37 16 20 1019.0 1019.0 -
17/11:00am 10.6 - - - - NNE 26 30 14 16 1019.6 1019.6 -
17/10:30am 10.4 - - - - NNE 24 30 13 16 1019.7 1019.7 -
17/10:00am 9.4 - - - - NNE 17 19 9 10 1019.9 1019.9 -
17/09:30am 8.8 - - - - NNE 17 20 9 11 1020.2 1020.2 -
17/09:00am 8.2 - - - - N 9 13 5 7 1020.6 1020.6 -
17/08:30am 6.7 - - - - SW 2 4 1 2 1020.5 1020.5 -
17/08:00am 5.6 - - - - WSW 6 6 3 3 1020.7 1020.7 -
17/07:30am 5.0 - - - - SW 6 7 3 4 1020.5 1020.5 -
17/07:00am 5.2 - - - - WSW 6 7 3 4 1020.5 1020.5 -
17/06:30am 5.5 - - - - WNW 6 7 3 4 1020.2 1020.2 -
17/06:00am 5.3 - - - - W 6 7 3 4 1020.0 1020.0 -
17/05:30am 6.2 - - - - WNW 7 11 4 6 1020.1 1020.1 -
17/05:00am 6.1 - - - - SW 4 7 2 4 1020.1 1020.1 -
17/04:30am 6.1 - - - - WSW 6 9 3 5 1020.0 1020.0 -
17/04:00am 6.8 - - - - WNW 7 11 4 6 1019.9 1019.9 -
17/03:30am 7.8 - - - - SW 4 7 2 4 1020.1 1020.1 -
17/03:00am 8.4 - - - - WNW 9 13 5 7 1020.4 1020.4 -
17/02:30am 8.6 - - - - WNW 11 17 6 9 1020.7 1020.7 -
17/02:00am 9.3 - - - - WNW 7 13 4 7 1020.8 1020.8 -
17/01:30am 7.0 - - - - W 13 17 7 9 1020.9 1020.9 -
17/01:00am 7.0 - - - - W 7 9 4 5 1021.0 1021.0 -
17/12:30am 7.8 - - - - WNW 7 13 4 7 1021.0 1021.0 -
17/12:00am 8.1 - - - - SW 2 6 1 3 1021.1 1021.1 -
 
Date/Time
EST
Temp
°C
App
Temp
°C
Dew
Point
°C
Rel
Hum
%
Delta-T
°C
Wind Press
QNH
hPa
Press
MSL
hPa
Rain since
9am
mm
Dir  Spd
km/h
Gust
km/h
Spd
kts
Gust
kts
16/11:30pm 8.6 - - - - WSW 6 9 3 5 1021.0 1021.0 -
16/11:00pm 8.9 - - - - WSW 6 7 3 4 1021.0 1021.0 -
16/10:30pm 9.7 - - - - NW 6 9 3 5 1021.0 1021.0 -
16/10:00pm 10.1 - - - - NW 6 7 3 4 1021.0 1021.0 -
16/09:30pm 10.1 - - - - SW 4 7 2 4 1021.2 1021.2 -
16/09:00pm 10.1 - - - - W 7 11 4 6 1020.8 1020.8 -
16/08:30pm 10.2 - - - - W 11 15 6 8 1020.2 1020.2 -
16/08:00pm 9.9 - - - - W 4 6 2 3 1020.2 1020.2 -
16/07:30pm 10.4 - - - - SW 6 6 3 3 1019.9 1019.9 -
16/07:00pm 10.5 - - - - SSW 6 7 3 4 1019.4 1019.4 -
16/06:30pm 11.1 - - - - SW 9 11 5 6 1019.2 1019.2 -
16/06:00pm 11.3 - - - - SW 9 15 5 8 1018.9 1018.9 -
16/05:30pm 11.7 - - - - SSW 15 20 8 11 1018.6 1018.6 -
16/05:00pm 11.9 - - - - SSW 15 22 8 12 1018.2 1018.2 -
16/04:30pm 12.0 - - - - SSW 20 26 11 14 1017.8 1017.8 -
16/04:00pm 11.7 - - - - SSW 17 26 9 14 1017.6 1017.6 -
16/03:30pm 11.6 - - - - SSW 22 32 12 17 1017.4 1017.4 -
16/03:00pm 12.0 - - - - SSW 22 30 12 16 1017.2 1017.2 -
16/02:30pm 12.1 - - - - SSW 22 33 12 18 1016.9 1016.9 -
16/02:00pm 11.6 - - - - SSW 24 32 13 17 1016.4 1016.4 -
16/01:30pm 11.9 - - - - SSW 22 30 12 16 1016.3 1016.3 -
16/01:00pm 11.9 - - - - SSW 26 37 14 20 1016.3 1016.3 -
16/12:30pm 11.7 - - - - SSW 26 39 14 21 1016.2 1016.2 -
16/12:00pm 10.9 - - - - SSW 30 43 16 23 1016.1 1016.1 -
16/11:30am 11.9 - - - - SSW 32 44 17 24 1015.7 1015.7 -
16/11:00am 11.1 - - - - SSW 32 48 17 26 1015.3 1015.3 -
16/10:51am 11.7 - - - - SSW 30 48 16 26 1015.0 1015.0 -
16/10:30am 11.0 - - - - SW 19 30 10 16 1014.7 1014.7 -
16/10:00am 10.7 - - - - SW 20 30 11 16 1014.2 1014.2 -
16/09:30am 10.4 - - - - SSW 24 32 13 17 1013.8 1013.8 -
16/09:00am 10.6 - - - - SSW 28 39 15 21 1013.2 1013.2 -
16/08:30am 11.1 - - - - SSW 26 37 14 20 1012.5 1012.5 -
16/08:00am 10.9 - - - - SSW 33 46 18 25 1011.7 1011.7 -
16/07:30am 12.0 - - - - SW 20 30 11 16 1010.9 1010.9 -
16/07:00am 13.5 - - - - WNW 20 32 11 17 1010.0 1010.0 -
16/06:30am 13.4 - - - - WNW 20 33 11 18 1009.6 1009.6 -
16/06:00am 13.1 - - - - NW 20 30 11 16 1009.4 1009.4 -
16/05:30am 13.3 - - - - NW 22 33 12 18 1009.5 1009.5 -
16/05:00am 13.8 - - - - NW 22 33 12 18 1009.4 1009.4 -
16/04:30am 14.7 - - - - NW 26 35 14 19 1009.3 1009.3 -
16/04:00am 15.2 - - - - NW 22 37 12 20 1009.2 1009.2 -
16/03:30am 15.5 - - - - NNW 22 32 12 17 1009.2 1009.2 -
16/03:00am 15.6 - - - - NNW 17 24 9 13 1008.8 1008.8 -
16/02:30am 15.1 - - - - NW 19 35 10 19 1009.9 1009.9 -
16/02:00am 15.3 - - - - NNW 28 37 15 20 1009.5 1009.5 -
16/01:30am 15.4 - - - - NNW 28 39 15 21 1009.8 1009.8 -
16/01:00am 15.1 - - - - NNW 24 33 13 18 1010.2 1010.2 -
16/12:30am 14.8 - - - - NNW 26 35 14 19 1010.9 1010.9 -
16/12:00am 13.3 - - - - N 24 30 13 16 1011.1 1011.1 -
 
Date/Time
EST
Temp
°C
App
Temp
°C
Dew
Point
°C
Rel
Hum
%
Delta-T
°C
Wind Press
QNH
hPa
Press
MSL
hPa
Rain since
9am
mm
Dir  Spd
km/h
Gust
km/h
Spd
kts
Gust
kts
15/11:30pm 12.7 - - - - N 15 20 8 11 1011.6 1011.6 -
15/11:00pm 12.8 - - - - N 20 24 11 13 1012.1 1012.1 -
15/10:30pm 12.6 - - - - N 20 22 11 12 1012.6 1012.6 -
15/10:00pm 12.5 - - - - N 11 15 6 8 1013.2 1013.2 -
15/09:30pm 12.5 - - - - N 15 17 8 9 1013.7 1013.7 -
15/09:00pm 12.7 - - - - N 13 17 7 9 1013.9 1013.9 -
15/08:30pm 12.6 - - - - N 7 11 4 6 1014.6 1014.6 -
15/08:00pm 12.7 - - - - N 9 11 5 6 1014.9 1014.9 -
15/07:30pm 13.0 - - - - NNW 9 13 5 7 1015.3 1015.3 -
15/07:00pm 12.9 - - - - N 17 19 9 10 1015.4 1015.4 -
15/06:30pm 13.2 - - - - N 19 22 10 12 1015.2 1015.2 -
15/06:00pm 13.5 - - - - N 24 30 13 16 1015.1 1015.1 -
15/05:30pm 13.8 - - - - NNW 22 28 12 15 1015.4 1015.4 -

Other formats

Comma delimited format used in spreadsheet applications
http://www.bom.gov.au/fwo/IDV60801/IDV60801.95826.axf

JavaScript Object Notation format (JSON) in row-major order
http://www.bom.gov.au/fwo/IDV60801/IDV60801.95826.json

Data quality

Most of these data are generated automatically and are frequently updated. Quality checks on data are not normally performed. It is possible for incorrect values to appear. Refer to information at About Latest Weather Observations and please check the disclaimer before using these data.